Terminal Aerodrome Forecast
Issued by NWS Sterling, VA

Current Version | Previous Version | Text Only | Print | Product List | Glossary Off
Versions: 1 2 3 4 5 6 7 8 9 10 11 12 13 14 15 16 17 18 19 20 21

096
FTUS41 KLWX 052059 AAA
TAFDCA
TAF AMD
KDCA 052059Z 0521/0618 31011G20KT P6SM SCT050
     FM052200 31011KT P6SM FEW250
     FM060200 32007KT P6SM FEW250
     FM060800 VRB03KT P6SM FEW250=

USA.gov is the U.S. government's official web portal to all federal, state and local government web resources and services.